Airfield :
LOGIN :

Register | Disclaimer

   EN    FR    IT 

 










Legend :    VFR   Marginal VFR   IFR   Intensive IFR   Very Intensive IFR
Visi :
Ceiling :
>= 8 km
>= 3000ft
5 to 8 km
1000 to 3000 ft
1500m to 5 km
500 to 1000 ft
800 to 1500m
200 to 500 ft
< 800m
< 200 ft
Symbols :   Thunderstorms  Fog  Heavy snow  Heavy precipitations  Wind > 20 kt
SIGMETs :     Misc.  Thunderstorms  Icing  Turbulence  Mountain Waves  Volcanic Ashes






- Airport Elevation : 313 ft
- IATA code : LEH


LFOH - Le Havre Octeville

CURRENT METAR :
  • 230400Z AUTO 28009KT 250V310 9999 BKN030 OVC036 12/07 Q1026

EXPIRED METARs :
  • 230330Z AUTO 23009KT 190V260 9999 BKN026 BKN032 OVC042 12/08 Q1026
  • 230300Z AUTO 24009KT 9999 BKN028 OVC035 12/08 Q1026
  • 230230Z AUTO 25010KT 9999 FEW030 OVC054 12/08 Q1026
  • 230200Z AUTO 26010KT 9999 FEW026 SCT043 OVC050 12/09 Q1026

TAF TAF LFOH
Valid from the 22 at 12:00 until the 23 at 12:00 UTC


221100Z 2212/2312 30013KT 9999 BKN030
PROB30
TEMPO 2215/2308 4000 SHRA BKN013
BECMG 2220/2223 VRB03KT
ATIS : +33 2 35 54 64 93



MET'MAP, your aeronautical weather chart ! - Copyright ORBIFLY December 2007 - Disclaimer

ORBIFLY MET'MAP TEAM :

Programming & Development : Alexandra Zaïnal
Concept & original design : Baudouin d'Aumeries
Assistance for programming : Marc-Olivier Méhu
Technical & hardware support : Manuel Goepfert

Contact : metmap@orbifly.com




SOURCES & CREDITS :

   NOAA